Saint Louis, Missouri
Traffic Map
Current Weather Conditions
Saint Louis, Missouri
Clear
Clear

Feels Like: 4°
Wind Chill: Ceiling: Unl
Heat Index: Visibility: 10mi
Dew Point: -7° Wind: 0mph
Humidity: 45% Direction: ° ()
Pressure: 30.49in Gusts: 0mph
Raw Report DataKCPS 302053Z 00000KT 10SM CLR 04/M07 A3049 RMK AO2 SLP329 T00391072 56016
Traffic Incident Summary
Active as of:
Severity:
Category:
InformationThere was an issue retrieving the traffic information for this location. Please try a different location or try again shortly.
Advertisements
Track Severe Weather on mobile